Time;durP1;ratioP1;P1;durP2;ratioP2;P2;SDS_P1;SDS_P2;PMS_P1;PMS_P2;Temp;Humidity;BMP_temperature;BMP_pressure;BME280_temperature;BME280_humidity;BME280_pressure;Samples;Min_cycle;Max_cycle;Signal;HPM_P1;HPM_P2
2021/03/05 00:01:04;;;;;;;11.93;10.77;;;;;;;3.09;82.59;100970.63;5054870;28;20206;-76
2021/03/05 00:03:31;;;;;;;11.40;10.30;;;;;;;3.08;82.46;100977.53;5055712;28;20209;-77
2021/03/05 00:05:57;;;;;;;10.67;9.67;;;;;;;3.06;83.13;100991.22;5055058;28;20279;-77
2021/03/05 00:08:24;;;;;;;11.50;10.40;;;;;;;3.06;82.44;100986.06;5055610;28;20231;-77
2021/03/05 00:10:51;;;;;;;11.37;10.37;;;;;;;3.05;82.56;100986.91;5055552;28;20206;-77
2021/03/05 00:13:20;;;;;;;11.53;10.47;;;;;;;3.06;82.32;100991.22;5055888;28;20205;-77
2021/03/05 00:15:46;;;;;;;11.77;10.57;;;;;;;3.03;82.90;100989.44;5052479;28;20223;-77
2021/03/05 00:18:12;;;;;;;13.67;10.50;;;;;;;3.00;82.78;100991.97;5056044;28;20198;-76
2021/03/05 00:20:42;;;;;;;15.13;10.17;;;;;;;2.98;81.80;100997.09;5054830;28;20202;-76
2021/03/05 00:23:08;;;;;;;10.97;9.97;;;;;;;2.96;81.77;100996.19;5056047;28;20206;-77
2021/03/05 00:25:34;;;;;;;12.20;11.10;;;;;;;2.98;81.93;101003.97;5054474;28;20233;-77
2021/03/05 00:28:00;;;;;;;11.57;9.97;;;;;;;3.00;81.76;101007.44;5055747;28;20221;-77
2021/03/05 00:30:27;;;;;;;11.87;10.70;;;;;;;2.98;82.25;100997.09;5055339;28;20236;-76
2021/03/05 00:32:53;;;;;;;12.27;11.07;;;;;;;2.97;81.87;101009.94;5054675;28;20205;-77
2021/03/05 00:35:20;;;;;;;11.73;10.70;;;;;;;2.95;81.81;101015.09;5054786;28;20698;-76
2021/03/05 00:37:48;;;;;;;12.43;11.23;;;;;;;2.92;82.08;101021.88;5055174;28;20667;-77
2021/03/05 00:40:16;;;;;;;12.70;11.47;;;;;;;2.90;82.12;101024.41;5054480;28;20202;-77
2021/03/05 00:42:44;;;;;;;11.73;10.67;;;;;;;2.91;81.91;101021.00;5052886;28;20209;-77
2021/03/05 00:45:13;;;;;;;13.50;12.30;;;;;;;2.90;82.47;101020.97;5054773;28;20761;-77
2021/03/05 00:47:39;;;;;;;12.80;11.60;;;;;;;2.93;82.15;101021.03;5054459;28;20222;-76
2021/03/05 00:50:06;;;;;;;12.67;11.20;;;;;;;2.93;82.72;101029.66;5054325;28;20717;-76
2021/03/05 00:52:33;;;;;;;14.27;12.87;;;;;;;2.94;82.93;101030.53;5052946;28;20213;-77
2021/03/05 00:55:00;;;;;;;12.93;11.63;;;;;;;2.96;82.09;101028.84;5052604;28;20222;-77
2021/03/05 00:57:26;;;;;;;14.53;13.10;;;;;;;2.95;82.04;101029.66;5052818;28;20275;-77
2021/03/05 00:59:52;;;;;;;14.30;12.30;;;;;;;2.93;82.00;101034.81;5052953;28;20212;-77
2021/03/05 01:02:18;;;;;;;14.10;12.30;;;;;;;2.91;81.91;101039.03;5052427;28;20216;-77
2021/03/05 01:04:44;;;;;;;13.87;12.47;;;;;;;2.92;82.10;101037.34;5053416;28;20229;-77
2021/03/05 01:07:10;;;;;;;13.43;12.10;;;;;;;2.88;81.32;101033.84;5053139;28;20226;-77
2021/03/05 01:09:37;;;;;;;13.00;11.70;;;;;;;2.86;81.47;101037.22;5055008;28;20209;-77
2021/03/05 01:12:04;;;;;;;11.73;10.63;;;;;;;2.82;80.63;101040.56;5054079;28;20259;-77
2021/03/05 01:14:30;;;;;;;11.77;10.67;;;;;;;2.81;80.87;101034.53;5054358;28;20225;-76
2021/03/05 01:16:56;;;;;;;11.93;10.80;;;;;;;2.75;80.67;101042.13;5053751;28;20281;-76
2021/03/05 01:19:24;;;;;;;12.27;10.83;;;;;;;2.74;80.88;101045.56;5054079;28;20652;-77
2021/03/05 01:21:50;;;;;;;12.37;11.23;;;;;;;2.69;81.19;101055.72;5053903;28;20548;-77
2021/03/05 01:24:16;;;;;;;11.07;9.97;;;;;;;2.69;81.54;101048.00;5054084;28;20320;-76
2021/03/05 01:26:42;;;;;;;11.40;10.37;;;;;;;2.71;81.06;101050.63;5051787;28;20213;-77
2021/03/05 01:29:09;;;;;;;12.43;10.80;;;;;;;2.74;81.23;101059.31;5055183;28;20282;-77
2021/03/05 01:31:35;;;;;;;11.60;10.50;;;;;;;2.66;81.22;101059.97;5052866;28;20228;-77
2021/03/05 01:34:02;;;;;;;11.60;10.50;;;;;;;2.65;81.60;101064.22;5054123;28;20222;-77
2021/03/05 01:36:28;;;;;;;11.97;10.77;;;;;;;2.66;81.99;101063.41;5053123;28;20277;-77
2021/03/05 01:38:54;;;;;;;11.60;10.23;;;;;;;2.64;80.97;101069.38;5054140;28;20202;-77
2021/03/05 01:41:19;;;;;;;10.67;9.57;;;;;;;2.54;81.35;101068.28;5053287;28;20625;-77
2021/03/05 01:43:46;;;;;;;9.93;8.70;;;;;;;2.53;81.40;101077.69;5054239;28;20204;-77
2021/03/05 01:46:13;;;;;;;9.47;8.67;;;;;;;2.53;81.23;101069.97;5053413;28;20206;-77
2021/03/05 01:48:40;;;;;;;10.00;7.93;;;;;;;2.55;80.85;101082.91;5053338;28;20233;-77
2021/03/05 01:51:10;;;;;;;9.53;8.53;;;;;;;2.52;81.04;101065.66;5053112;28;20206;-77
2021/03/05 01:53:37;;;;;;;8.63;7.83;;;;;;;2.51;80.32;101074.22;5053700;28;20252;-77
2021/03/05 01:56:06;;;;;;;7.87;7.10;;;;;;;2.44;79.95;101067.19;5052683;28;20206;-77
2021/03/05 01:58:32;;;;;;;7.40;6.70;;;;;;;2.43;79.83;101082.59;5053455;28;20285;-77
2021/03/05 02:01:00;;;;;;;8.20;7.33;;;;;;;2.37;80.18;101080.75;5052421;28;20197;-77
2021/03/05 02:03:30;;;;;;;10.07;7.40;;;;;;;2.37;80.61;101086.75;5050911;28;20205;-77
2021/03/05 02:05:56;;;;;;;8.10;6.97;;;;;;;2.34;79.95;101086.69;5052984;28;20226;-77
2021/03/05 02:08:23;;;;;;;7.80;6.93;;;;;;;2.37;80.17;101085.91;5053183;28;20267;-77
2021/03/05 02:10:49;;;;;;;8.37;7.13;;;;;;;2.36;80.19;101095.34;5052872;28;20209;-77
2021/03/05 02:13:15;;;;;;;7.83;6.93;;;;;;;2.32;80.29;101095.19;5052908;28;20206;-77
2021/03/05 02:15:43;;;;;;;7.30;6.60;;;;;;;2.30;80.50;101095.19;5052760;28;20221;-77
2021/03/05 02:18:14;;;;;;;8.83;5.67;;;;;;;2.35;79.77;101097.88;5053931;28;20206;-77
2021/03/05 02:21:00;;;;;;;5.83;5.23;;;;;;;2.31;78.34;101103.78;5052362;28;20486;-77
2021/03/05 02:23:48;;;;;;;5.17;4.67;;;;;;;2.23;79.09;101103.56;5050172;28;20284;-77
2021/03/05 02:26:52;;;;;;;4.97;4.50;;;;;;;2.16;78.78;101118.00;5051173;28;20210;-77
2021/03/05 02:29:58;;;;;;;6.67;4.87;;;;;;;2.14;79.28;101117.09;5052374;28;20217;-77
2021/03/05 02:32:30;;;;;;;6.73;4.90;;;;;;;2.10;78.84;101129.84;5051772;28;20609;-77
2021/03/05 02:34:57;;;;;;;5.93;4.23;;;;;;;2.03;78.30;101131.38;5052524;28;20229;-77
2021/03/05 02:37:29;;;;;;;4.93;3.83;;;;;;;1.96;78.08;101132.94;5052707;28;20211;-77
2021/03/05 02:40:01;;;;;;;4.20;3.47;;;;;;;1.97;78.22;101137.22;5052772;28;20678;-77
2021/03/05 02:42:31;;;;;;;3.70;3.23;;;;;;;1.90;77.46;101139.59;5052546;28;20632;-76
2021/03/05 02:44:59;;;;;;;5.17;3.10;;;;;;;1.85;77.39;101142.03;5053805;28;20225;-77
2021/03/05 02:47:30;;;;;;;5.37;3.10;;;;;;;1.87;77.86;101137.81;5049758;28;20589;-77
2021/03/05 02:49:56;;;;;;;4.43;3.07;;;;;;;1.78;77.44;101147.84;5053219;28;20255;-77
2021/03/05 02:52:24;;;;;;;5.40;3.33;;;;;;;1.82;77.62;101146.22;5052958;28;20210;-76
2021/03/05 02:54:54;;;;;;;4.17;2.93;;;;;;;1.82;76.61;101146.22;5052769;28;20687;-77
2021/03/05 02:57:23;;;;;;;4.10;2.77;;;;;;;1.74;76.54;101158.88;5052202;28;20698;-76
2021/03/05 02:59:51;;;;;;;4.27;2.63;;;;;;;1.75;76.52;101158.94;5053011;28;20235;-77
2021/03/05 03:02:23;;;;;;;2.90;2.00;;;;;;;1.72;76.37;101163.97;5052585;28;20746;-77
2021/03/05 03:04:53;;;;;;;3.70;1.87;;;;;;;1.69;76.15;101160.47;5052520;28;20248;-77
2021/03/05 03:07:19;;;;;;;5.37;2.33;;;;;;;1.58;76.93;101161.00;5051623;28;20233;-76
2021/03/05 03:09:47;;;;;;;3.07;1.80;;;;;;;1.56;76.43;101175.53;5051640;28;20665;-77
2021/03/05 03:12:16;;;;;;;3.20;2.13;;;;;;;1.52;76.61;101171.13;5051801;28;20288;-77
2021/03/05 03:14:43;;;;;;;3.90;1.90;;;;;;;1.47;76.85;101184.69;5052853;28;20223;-77
2021/03/05 03:17:10;;;;;;;5.63;3.40;;;;;;;1.49;77.02;101181.34;5052214;28;20202;-77
2021/03/05 03:19:39;;;;;;;4.87;2.40;;;;;;;1.51;76.60;101184.81;5052904;28;20201;-77
2021/03/05 03:22:06;;;;;;;3.60;2.77;;;;;;;1.53;76.63;101187.44;5051751;28;20217;-76
2021/03/05 03:24:33;;;;;;;3.07;1.80;;;;;;;1.47;76.39;101189.84;5052331;28;20233;-77
2021/03/05 03:26:59;;;;;;;5.13;2.70;;;;;;;1.41;77.16;101192.19;5051802;28;20283;-77
2021/03/05 03:29:26;;;;;;;4.23;1.77;;;;;;;1.37;77.35;101204.13;5052730;28;20224;-77
2021/03/05 03:31:53;;;;;;;4.00;2.30;;;;;;;1.35;77.67;101204.06;5052347;28;20243;-77
2021/03/05 03:34:20;;;;;;;4.93;2.60;;;;;;;1.38;77.36;101199.00;5052706;28;20221;-77
2021/03/05 03:36:48;;;;;;;4.07;2.40;;;;;;;1.42;77.55;101204.25;5052354;28;20760;-77
2021/03/05 03:39:15;;;;;;;4.17;2.30;;;;;;;1.37;77.04;101209.25;5052564;28;20198;-77
2021/03/05 03:41:42;;;;;;;4.03;2.20;;;;;;;1.37;76.99;101214.41;5052062;28;20214;-76
2021/03/05 03:44:09;;;;;;;4.37;1.97;;;;;;;1.34;76.69;101220.31;5052752;28;20228;-77
2021/03/05 03:46:39;;;;;;;3.70;2.00;;;;;;;1.38;77.39;101219.56;5052506;28;20206;-77
2021/03/05 03:49:08;;;;;;;4.43;2.10;;;;;;;1.39;76.68;101228.19;5052721;28;20198;-77
2021/03/05 03:51:39;;;;;;;4.20;2.20;;;;;;;1.39;77.12;101236.78;5052273;28;20210;-77
2021/03/05 03:54:07;;;;;;;4.07;2.10;;;;;;;1.38;76.99;101240.16;5045813;28;20275;-77
2021/03/05 03:56:37;;;;;;;4.83;2.27;;;;;;;1.41;77.18;101254.84;5050281;28;20213;-77
2021/03/05 03:59:05;;;;;;;3.30;2.13;;;;;;;1.42;77.45;101261.72;5053123;28;20228;-77
2021/03/05 04:01:32;;;;;;;3.37;1.80;;;;;;;1.41;76.67;101254.84;5055807;28;20205;-76
2021/03/05 04:04:01;;;;;;;3.57;1.83;;;;;;;1.37;76.09;101256.44;5055807;28;20282;-77
2021/03/05 04:06:28;;;;;;;3.20;2.20;;;;;;;1.31;76.78;101263.06;5055712;28;20221;-77
2021/03/05 04:08:56;;;;;;;5.47;2.53;;;;;;;1.29;76.75;101264.69;5056479;28;20236;-77
2021/03/05 04:11:24;;;;;;;4.77;2.17;;;;;;;1.30;76.84;101269.91;5055903;28;20605;-77
2021/03/05 04:13:51;;;;;;;2.50;2.00;;;;;;;1.29;76.65;101269.84;5056015;28;20198;-77
2021/03/05 04:16:17;;;;;;;4.87;2.23;;;;;;;1.25;76.62;101276.63;5055648;28;20672;-77
2021/03/05 04:18:43;;;;;;;2.73;2.53;;;;;;;1.26;76.88;101274.91;5056499;28;20302;-77
2021/03/05 04:21:16;;;;;;;3.20;2.00;;;;;;;1.24;76.68;101271.41;5055545;28;20213;-77
2021/03/05 04:23:42;;;;;;;3.87;2.40;;;;;;;1.25;77.04;101279.19;5056078;28;20574;-77
2021/03/05 04:26:08;;;;;;;3.20;1.73;;;;;;;1.21;77.25;101277.34;5055806;28;20201;-77
2021/03/05 04:28:34;;;;;;;2.50;1.80;;;;;;;1.20;77.25;101280.72;5056177;28;20227;-77
2021/03/05 04:31:01;;;;;;;4.73;2.00;;;;;;;1.21;76.77;101274.78;5055578;28;20217;-77
2021/03/05 04:33:27;;;;;;;3.73;2.07;;;;;;;1.14;77.10;101272.81;5056660;28;20209;-77
2021/03/05 04:35:53;;;;;;;4.07;2.03;;;;;;;1.17;77.39;101285.78;5053267;28;20223;-77
2021/03/05 04:38:19;;;;;;;2.00;1.73;;;;;;;1.11;77.12;101278.72;5055928;28;20212;-76
2021/03/05 04:40:45;;;;;;;3.53;1.90;;;;;;;1.10;77.37;101281.25;5053538;28;20218;-77
2021/03/05 04:43:11;;;;;;;2.07;1.73;;;;;;;1.09;77.05;101287.19;5056206;28;20574;-77
2021/03/05 04:45:37;;;;;;;3.23;1.73;;;;;;;1.10;77.25;101296.66;5055001;28;20229;-77
2021/03/05 04:48:05;;;;;;;3.77;1.93;;;;;;;1.09;76.83;101295.81;5055964;28;20213;-77
2021/03/05 04:50:31;;;;;;;3.80;1.73;;;;;;;1.07;76.92;101291.41;5055226;28;20205;-77
2021/03/05 04:52:57;;;;;;;4.07;2.17;;;;;;;1.10;77.39;101294.97;5055926;28;20296;-77
2021/03/05 04:55:23;;;;;;;2.77;1.70;;;;;;;1.06;77.38;101299.97;5055435;28;20221;-77
2021/03/05 04:57:49;;;;;;;3.90;1.60;;;;;;;1.07;77.19;101297.47;5056036;28;20263;-77
2021/03/05 05:00:16;;;;;;;3.23;1.77;;;;;;;1.08;77.44;101300.88;5055226;28;20209;-76
2021/03/05 05:02:42;;;;;;;3.87;2.53;;;;;;;1.08;77.08;101301.75;5055538;28;20239;-77
2021/03/05 05:05:10;;;;;;;3.37;1.80;;;;;;;1.09;76.63;101311.22;5055867;28;20232;-76
2021/03/05 05:07:36;;;;;;;3.57;2.03;;;;;;;1.06;76.66;101315.38;5053388;28;20659;-77
2021/03/05 05:10:03;;;;;;;3.77;1.93;;;;;;;1.05;76.95;101313.63;5055636;28;20263;-77
2021/03/05 05:12:29;;;;;;;6.73;1.87;;;;;;;0.95;77.93;101318.47;5052625;28;20213;-77
2021/03/05 05:14:55;;;;;;;3.20;2.00;;;;;;;0.95;77.52;101323.63;5055603;28;20228;-77
2021/03/05 05:17:21;;;;;;;5.40;2.40;;;;;;;0.92;76.72;101320.94;5055065;28;20220;-76
2021/03/05 05:19:47;;;;;;;4.73;2.13;;;;;;;0.91;77.35;101326.91;5055094;28;20300;-77
2021/03/05 05:22:14;;;;;;;3.17;2.07;;;;;;;0.82;77.25;101323.13;5054719;28;20206;-77
2021/03/05 05:24:40;;;;;;;3.90;2.20;;;;;;;0.84;77.89;101326.63;5054940;28;20226;-77
2021/03/05 05:27:06;;;;;;;3.90;2.10;;;;;;;0.71;77.66;101323.59;5054598;28;20217;-77
2021/03/05 05:29:32;;;;;;;4.93;1.97;;;;;;;0.75;77.58;101333.22;5054984;28;20201;-76
2021/03/05 05:31:58;;;;;;;6.70;2.27;;;;;;;0.83;77.53;101338.59;5054248;28;20267;-76
2021/03/05 05:34:25;;;;;;;4.30;2.20;;;;;;;0.73;77.61;101339.09;5055438;28;20225;-77
2021/03/05 05:36:51;;;;;;;3.50;2.27;;;;;;;0.73;77.97;101345.13;5054286;28;20260;-76
2021/03/05 05:39:17;;;;;;;3.80;2.43;;;;;;;0.53;77.74;101346.06;5054482;28;20664;-77
2021/03/05 05:41:44;;;;;;;5.77;3.60;;;;;;;0.26;78.57;101348.50;5071165;22;20213;-75
2021/03/05 05:44:10;;;;;;;4.20;3.30;;;;;;;0.33;78.92;101358.19;5041448;28;20230;-77
2021/03/05 05:46:38;;;;;;;4.47;3.83;;;;;;;0.36;79.33;101363.44;5036041;28;20204;-75
2021/03/05 05:49:05;;;;;;;4.40;3.53;;;;;;;0.41;79.22;101372.19;5032756;28;20226;-76
2021/03/05 05:51:36;;;;;;;6.33;5.20;;;;;;;0.50;79.07;101377.69;5033134;28;20668;-75
2021/03/05 05:54:07;;;;;;;8.03;4.73;;;;;;;0.57;78.49;101378.75;5032576;28;20219;-75
2021/03/05 05:56:36;;;;;;;8.50;5.93;;;;;;;0.58;78.16;101378.81;5033112;28;20667;-75
2021/03/05 05:59:02;;;;;;;10.53;5.43;;;;;;;0.47;77.89;101379.25;5031856;28;20206;-75
2021/03/05 06:01:33;;;;;;;5.80;5.03;;;;;;;0.45;78.54;101381.75;5032531;28;20202;-75
2021/03/05 06:04:00;;;;;;;7.70;3.93;;;;;;;0.46;78.59;101386.09;5025425;28;20703;-76
2021/03/05 06:06:26;;;;;;;7.50;3.47;;;;;;;0.30;78.35;101387.19;5032680;28;20614;-75
2021/03/05 06:08:56;;;;;;;6.77;3.57;;;;;;;0.45;78.22;101393.72;5031426;28;20234;-75
2021/03/05 06:11:22;;;;;;;4.10;2.83;;;;;;;0.47;77.78;101400.66;5032565;28;20208;-75
2021/03/05 06:13:51;;;;;;;4.17;2.60;;;;;;;0.39;77.16;101400.38;5030701;28;20214;-76
2021/03/05 06:16:18;;;;;;;5.27;2.80;;;;;;;0.04;78.50;101405.84;5032116;28;20210;-76
2021/03/05 06:18:46;;;;;;;3.37;2.50;;;;;;;0.18;78.56;101409.84;5024930;28;20218;-76
2021/03/05 06:21:12;;;;;;;6.37;2.87;;;;;;;0.08;78.51;101411.16;5032045;28;20215;-75
2021/03/05 06:23:57;;;;;;;3.93;2.70;;;;;;;0.05;78.98;101423.00;5030733;28;20218;-75
2021/03/05 06:26:23;;;;;;;5.43;2.67;;;;;;;-0.01;78.82;101423.63;5032329;28;20259;-75
2021/03/05 06:29:02;;;;;;;4.90;2.67;;;;;;;0.06;79.08;101424.75;5031407;28;20288;-75
2021/03/05 06:31:29;;;;;;;4.70;2.57;;;;;;;0.04;78.83;101432.41;5032120;28;20229;-76
2021/03/05 06:33:57;;;;;;;6.37;2.47;;;;;;;0.04;78.75;101434.06;5024372;28;20234;-75
2021/03/05 06:36:23;;;;;;;5.30;2.27;;;;;;;0.12;78.68;101441.28;5031993;28;20206;-76
2021/03/05 06:38:49;;;;;;;4.30;2.93;;;;;;;0.25;78.49;101445.19;5031489;28;20407;-76
2021/03/05 06:41:21;;;;;;;5.77;2.73;;;;;;;0.22;78.35;101455.38;5031982;28;20205;-75
2021/03/05 06:43:48;;;;;;;3.37;2.20;;;;;;;0.27;77.77;101460.66;5030976;28;20236;-76
2021/03/05 06:46:32;;;;;;;3.23;2.57;;;;;;;0.22;77.82;101465.63;5031032;28;20856;-75
2021/03/05 06:48:59;;;;;;;3.43;2.10;;;;;;;0.30;77.70;101464.22;5030267;28;20222;-76
2021/03/05 06:51:26;;;;;;;4.83;2.73;;;;;;;0.28;77.89;101465.88;5029327;28;20214;-75
2021/03/05 06:54:05;;;;;;;6.80;2.23;;;;;;;0.26;78.08;101469.16;5032454;28;20214;-76
2021/03/05 06:56:33;;;;;;;6.03;2.30;;;;;;;0.12;77.97;101477.22;5032206;28;20618;-75
2021/03/05 06:59:01;;;;;;;3.43;2.07;;;;;;;0.13;78.01;101481.53;5030956;28;20217;-76
2021/03/05 07:01:27;;;;;;;3.40;2.20;;;;;;;-0.06;78.38;101487.63;5031578;28;20555;-75
2021/03/05 07:04:09;;;;;;;4.20;2.20;;;;;;;-0.08;78.90;101491.81;5032237;28;20206;-75
2021/03/05 07:06:35;;;;;;;6.20;2.27;;;;;;;-0.33;79.52;101491.59;5031771;28;20206;-75
2021/03/05 07:09:01;;;;;;;3.03;2.40;;;;;;;-0.13;79.64;101497.56;5030747;28;20234;-75
2021/03/05 07:11:36;;;;;;;6.03;2.70;;;;;;;-0.06;80.10;101504.69;5031632;28;20210;-75
2021/03/05 07:14:03;;;;;;;5.57;3.43;;;;;;;-0.11;80.10;101509.63;5030915;28;20221;-76
2021/03/05 07:16:40;;;;;;;2.93;2.27;;;;;;;0.09;79.65;101514.72;5031810;28;20228;-76
2021/03/05 07:19:08;;;;;;;6.43;2.50;;;;;;;0.23;79.10;101520.41;5024672;28;20570;-77
2021/03/05 07:21:38;;;;;;;6.27;4.00;;;;;;;0.32;81.00;101524.22;5031646;28;20293;-76
2021/03/05 07:24:09;;;;;;;5.20;2.50;;;;;;;0.47;80.05;101525.66;5030730;28;20704;-76
2021/03/05 07:26:42;;;;;;;6.03;2.57;;;;;;;0.28;79.32;101524.94;5028235;28;20210;-76
2021/03/05 07:29:15;;;;;;;4.33;2.57;;;;;;;0.16;79.44;101527.00;5025147;28;20222;-75
2021/03/05 07:31:44;;;;;;;6.13;2.63;;;;;;;0.32;80.11;101531.06;5031022;28;20252;-76
2021/03/05 07:34:16;;;;;;;4.27;2.57;;;;;;;0.34;80.17;101529.44;5025772;28;20221;-76
2021/03/05 07:36:46;;;;;;;6.07;3.03;;;;;;;0.54;79.79;101536.25;5034987;28;20213;-76
2021/03/05 07:39:16;;;;;;;7.87;2.10;;;;;;;0.73;79.01;101540.41;5034465;28;20217;-76
2021/03/05 07:41:42;;;;;;;5.17;2.37;;;;;;;0.92;76.93;101538.53;5035159;28;20202;-76
2021/03/05 07:44:08;;;;;;;3.50;2.47;;;;;;;0.89;77.53;101543.56;5034083;28;20226;-76
2021/03/05 07:46:34;;;;;;;3.70;2.53;;;;;;;1.03;78.08;101554.38;5034860;28;20213;-75
2021/03/05 07:49:00;;;;;;;8.80;2.80;;;;;;;1.02;77.72;101550.94;5033834;28;20225;-74
2021/03/05 07:51:27;;;;;;;5.77;2.60;;;;;;;1.13;76.49;101547.06;5035277;28;20217;-76
2021/03/05 07:53:55;;;;;;;3.77;2.20;;;;;;;1.26;75.95;101561.25;5035488;28;20210;-79
2021/03/05 07:56:44;;;;;;;3.83;2.33;;;;;;;1.35;75.32;101560.72;5037380;28;20207;-80
2021/03/05 07:59:11;;;;;;;5.18;3.00;;;;;;;1.41;75.53;101558.38;5035326;28;20442;-79
2021/03/05 08:01:56;;;;;;;5.53;3.10;;;;;;;1.55;75.73;101562.31;5035467;28;20261;-81
2021/03/05 08:04:23;;;;;;;6.27;3.43;;;;;;;1.39;74.54;101563.47;5035610;28;20231;-78
2021/03/05 08:07:09;;;;;;;8.13;3.10;;;;;;;1.14;75.41;101569.38;5035191;28;20689;-79
2021/03/05 08:09:36;;;;;;;4.63;3.00;;;;;;;1.31;75.86;101566.56;5036124;28;20667;-78
2021/03/05 08:12:38;;;;;;;3.20;2.90;;;;;;;1.57;76.21;101570.09;5033047;28;20206;-78
2021/03/05 08:15:23;;;;;;;4.00;2.93;;;;;;;1.53;74.09;101571.69;5035824;28;20250;-77
2021/03/05 08:17:51;;;;;;;3.70;3.23;;;;;;;1.44;75.35;101573.91;5033006;28;20202;-78
2021/03/05 08:20:52;;;;;;;4.33;3.37;;;;;;;1.64;74.01;101576.34;5034440;28;20198;-75
2021/03/05 08:23:20;;;;;;;4.00;2.97;;;;;;;1.84;74.16;101574.47;5027792;28;20211;-78
2021/03/05 08:25:52;;;;;;;5.23;3.27;;;;;;;1.80;72.48;101573.47;5036505;28;20722;-78
2021/03/05 08:28:42;;;;;;;7.83;4.00;;;;;;;1.78;74.17;101583.75;5032384;28;20276;-76
2021/03/05 08:31:37;;;;;;;6.40;4.03;;;;;;;1.88;73.20;101591.75;5033090;28;20198;-76
2021/03/05 08:34:25;;;;;;;4.83;4.40;;;;;;;2.06;72.12;101589.84;5031025;28;20275;-76
2021/03/05 08:36:52;;;;;;;3.07;2.70;;;;;;;1.83;72.61;101585.59;5032717;28;20202;-76
2021/03/05 08:39:30;;;;;;;5.77;5.27;;;;;;;1.99;74.50;101596.47;5031993;28;20210;-76
2021/03/05 08:42:29;;;;;;;9.13;5.00;;;;;;;2.04;73.30;101594.03;5030803;28;20207;-76
2021/03/05 08:45:13;;;;;;;5.87;4.67;;;;;;;2.02;72.43;101603.41;5045371;28;20226;-76
2021/03/05 08:47:41;;;;;;;5.47;3.93;;;;;;;2.03;73.36;101606.88;5053702;28;20235;-75
2021/03/05 08:50:09;;;;;;;5.13;3.50;;;;;;;1.92;72.90;101604.81;5054368;28;20648;-76
2021/03/05 08:52:35;;;;;;;4.57;4.10;;;;;;;1.52;74.49;101599.91;5034076;28;20217;-76
2021/03/05 08:55:06;;;;;;;5.13;3.90;;;;;;;1.07;75.70;101595.69;5033475;28;20887;-77
2021/03/05 08:57:38;;;;;;;6.70;4.07;;;;;;;0.93;76.89;101607.13;5027645;28;20295;-77
2021/03/05 09:00:05;;;;;;;24.57;14.90;;;;;;;1.05;77.07;101612.75;5033071;28;20567;-76
2021/03/05 09:02:31;;;;;;;5.03;4.47;;;;;;;1.25;76.37;101610.94;5025359;28;20212;-76
2021/03/05 09:04:58;;;;;;;4.90;4.40;;;;;;;1.33;75.52;101614.69;5034040;28;20214;-77
2021/03/05 09:07:24;;;;;;;5.57;4.53;;;;;;;1.46;74.71;101616.00;5028878;28;20439;-78
2021/03/05 09:09:51;;;;;;;7.47;5.97;;;;;;;1.41;75.05;101617.53;5032567;28;20433;-76
2021/03/05 09:12:21;;;;;;;6.23;4.90;;;;;;;1.57;74.41;101612.13;5030937;28;20207;-77
2021/03/05 09:15:09;;;;;;;5.90;5.30;;;;;;;1.80;74.71;101606.94;5031691;28;20222;-76
2021/03/05 09:17:35;;;;;;;6.03;5.40;;;;;;;1.96;73.44;101610.94;5026677;28;20206;-77
2021/03/05 09:20:01;;;;;;;5.37;4.97;;;;;;;1.54;73.43;101619.72;5032694;28;20214;-77
2021/03/05 09:22:27;;;;;;;7.17;5.30;;;;;;;1.63;73.96;101616.63;5030493;28;20309;-77
2021/03/05 09:24:58;;;;;;;6.33;5.80;;;;;;;1.80;73.70;101624.94;5032709;28;20230;-77
2021/03/05 09:27:28;;;;;;;6.10;5.40;;;;;;;1.56;74.44;101630.94;5030244;28;20207;-78
2021/03/05 09:29:55;;;;;;;6.17;5.47;;;;;;;1.68;74.92;101634.81;5035368;28;20268;-79
2021/03/05 09:32:21;;;;;;;7.60;5.60;;;;;;;1.35;74.51;101636.19;5030282;28;20237;-78
2021/03/05 09:34:49;;;;;;;7.93;6.23;;;;;;;1.31;75.74;101641.13;5036556;28;20214;-79
2021/03/05 09:37:17;;;;;;;13.20;7.07;;;;;;;1.70;75.09;101643.47;5035413;28;20231;-80
2021/03/05 09:39:44;;;;;;;8.47;6.60;;;;;;;1.96;73.69;101641.81;5034839;28;20206;-74
2021/03/05 09:42:10;;;;;;;9.63;6.13;;;;;;;2.16;73.44;101634.78;5029536;28;20244;-78
2021/03/05 09:44:45;;;;;;;7.23;5.97;;;;;;;2.29;72.85;101644.72;5031810;28;20226;-75
2021/03/05 09:47:11;;;;;;;5.60;5.10;;;;;;;2.30;72.35;101645.56;5027368;28;20197;-75
2021/03/05 09:49:38;;;;;;;10.93;5.93;;;;;;;2.24;72.77;101656.56;5032242;28;20637;-75
2021/03/05 09:52:04;;;;;;;5.83;5.33;;;;;;;2.00;72.58;101651.41;5030069;28;20225;-76
2021/03/05 09:54:35;;;;;;;6.63;5.93;;;;;;;2.09;73.81;101656.03;5029940;28;20304;-76
2021/03/05 09:57:01;;;;;;;9.50;5.97;;;;;;;2.33;73.17;101662.03;5028605;28;20211;-76
2021/03/05 09:59:41;;;;;;;7.07;5.47;;;;;;;2.28;71.71;101665.25;5031600;28;20675;-76
2021/03/05 10:02:08;;;;;;;9.33;6.03;;;;;;;1.94;73.02;101662.38;5026334;28;20294;-75
2021/03/05 10:04:42;;;;;;;7.10;5.67;;;;;;;2.11;72.46;101651.81;5032368;28;20583;-76
2021/03/05 10:07:08;;;;;;;7.97;6.00;;;;;;;2.30;71.97;101656.78;5029375;28;20671;-76
2021/03/05 10:09:34;;;;;;;6.20;5.60;;;;;;;2.45;71.42;101656.41;5031903;28;20226;-76
2021/03/05 10:12:00;;;;;;;6.13;5.63;;;;;;;2.18;72.20;101669.22;5030112;28;20304;-76
2021/03/05 10:14:31;;;;;;;6.63;6.13;;;;;;;2.23;72.01;101670.25;5032213;28;20237;-76
2021/03/05 10:17:08;;;;;;;7.70;6.30;;;;;;;2.19;72.48;101673.56;5031440;28;20202;-75
2021/03/05 10:19:37;;;;;;;10.13;7.93;;;;;;;1.83;72.87;101679.13;5029433;28;20191;-74
2021/03/05 10:22:04;;;;;;;8.13;7.33;;;;;;;1.92;72.32;101674.34;5028771;28;20210;-74
2021/03/05 10:24:30;;;;;;;8.70;8.00;;;;;;;2.16;71.61;101679.47;5031731;28;20635;-74
2021/03/05 10:27:14;;;;;;;9.70;8.80;;;;;;;2.30;71.47;101695.44;5030472;28;20567;-73
2021/03/05 10:29:42;;;;;;;9.30;8.43;;;;;;;2.46;70.39;101689.09;5030070;28;20225;-75
2021/03/05 10:32:23;;;;;;;8.70;7.93;;;;;;;2.52;69.81;101691.03;5026437;28;20206;-75
2021/03/05 10:34:50;;;;;;;8.97;8.17;;;;;;;2.69;69.61;101702.75;5030682;28;20268;-75
2021/03/05 10:37:16;;;;;;;8.70;7.47;;;;;;;2.91;70.37;101695.72;5029086;28;20210;-75
2021/03/05 10:39:44;;;;;;;7.73;6.90;;;;;;;3.01;69.50;101708.09;5031301;28;20662;-74
2021/03/05 10:42:12;;;;;;;7.43;6.67;;;;;;;3.05;68.89;101712.53;5028956;28;20221;-75
2021/03/05 10:44:38;;;;;;;8.30;6.20;;;;;;;2.96;69.49;101704.50;5030920;28;20227;-75
2021/03/05 10:47:06;;;;;;;13.33;6.50;;;;;;;3.03;69.35;101703.00;5029254;28;20206;-75
2021/03/05 10:49:34;;;;;;;7.70;7.10;;;;;;;3.20;69.49;101719.03;5031160;28;20226;-75
2021/03/05 10:52:01;;;;;;;8.70;7.27;;;;;;;3.25;68.17;101715.78;5027951;28;20209;-75
2021/03/05 10:54:27;;;;;;;6.63;6.17;;;;;;;3.40;67.81;101710.19;5030844;28;20244;-74
2021/03/05 10:56:54;;;;;;;7.10;6.50;;;;;;;3.48;68.10;101710.44;5029618;28;21309;-74
2021/03/05 10:59:21;;;;;;;9.53;6.33;;;;;;;3.40;66.39;101710.19;5030007;28;20692;-75
2021/03/05 11:01:48;;;;;;;10.40;6.30;;;;;;;3.32;66.86;101719.41;5027616;28;20661;-75
2021/03/05 11:04:14;;;;;;;5.90;5.47;;;;;;;3.43;66.70;101720.63;5030288;28;20237;-74
2021/03/05 11:06:41;;;;;;;6.87;6.03;;;;;;;3.50;66.75;101725.13;5030497;28;20225;-75
2021/03/05 11:09:07;;;;;;;6.60;5.90;;;;;;;3.62;66.69;101722.03;5028259;28;20233;-75
2021/03/05 11:11:34;;;;;;;7.97;6.33;;;;;;;3.74;65.93;101725.00;5031400;28;20210;-75
2021/03/05 11:14:00;;;;;;;8.13;6.33;;;;;;;4.01;66.43;101726.63;5028492;28;20703;-75
2021/03/05 11:16:27;;;;;;;7.17;6.57;;;;;;;4.31;64.85;101730.91;5029106;28;20211;-74
2021/03/05 11:18:53;;;;;;;7.37;5.93;;;;;;;4.32;61.97;101737.81;5026999;28;20668;-74
2021/03/05 11:21:21;;;;;;;6.00;5.50;;;;;;;4.25;61.62;101731.63;5028738;28;20778;-74
2021/03/05 11:23:49;;;;;;;6.17;5.57;;;;;;;4.25;61.89;101731.63;5028348;28;20719;-74
2021/03/05 11:26:15;;;;;;;7.27;5.00;;;;;;;4.35;61.84;101728.44;5030379;28;20203;-74
2021/03/05 11:28:41;;;;;;;5.17;4.67;;;;;;;4.38;61.90;101725.97;5028099;28;20226;-75
2021/03/05 11:31:08;;;;;;;6.00;5.20;;;;;;;4.60;61.29;101728.22;5030239;28;20202;-75
2021/03/05 11:33:34;;;;;;;5.83;4.70;;;;;;;4.82;60.35;101725.38;5026085;28;20570;-75
2021/03/05 11:36:00;;;;;;;5.50;5.00;;;;;;;5.02;60.19;101728.47;5029710;28;20232;-74
2021/03/05 11:38:26;;;;;;;5.87;5.23;;;;;;;5.14;59.50;101727.88;5030854;28;20211;-74
2021/03/05 11:40:52;;;;;;;4.70;3.87;;;;;;;5.20;59.79;101735.78;5031155;28;20214;-74